Geneseo, IL (61254)

10:31 PM CDT on October 24, 2014 (GMT -0500)
In Town | Change Station
CLOSE
Current Station
Personal Weather Station
Location: Geneseo, IL
Elevation: 645 ft
Nearby Weather Stations
Active Advisory: Dense Fog Advisory

Elev 645 ft 41.44 °N, 90.15 °W | Updated 4 minutes ago

Overcast
Overcast
58.5 °F
Feels Like 58.5 °F
N
0.0
Wind Variable Wind from SSW
Gusts 0.0 mph

Today
High -- | Low -- °F
--% Chance of Precip.
Yesterday
High -- | Low -- °F
Precip. -- in
7:22 AM 6:06 PM
New Moon, 2% visible
Pressure 29.95 in
Visibility 4.0 miles
Clouds Mostly Cloudy 2400 ft
Overcast 3000 ft
Dew Point 53 °F
Humidity 83%
Rainfall 0.00 in
Snow Depth Not available.
UV 0 out of 12
Pollen 1.50 out of 12
Air Quality Not available.
Flu Activity No Activity
METAR KMLI 250252Z 28004KT 4SM BR BKN024 OVC030 16/13 A2995 RMK AO2 SLP141 T01560133 50005

More Conditions Fewer Conditions

Pressure 29.95 in
Visibility 4.0 miles
Clouds Mostly Cloudy 2400 ft
Overcast 3000 ft
Dew Point 53 °F
Humidity 83%
Rainfall 0.00 in
Snow Depth Not available.
UV 0 out of 12
Pollen 1.50 out of 12
Air Quality Not available.
Flu Activity No Activity
METAR KMLI 250252Z 28004KT 4SM BR BKN024 OVC030 16/13 A2995 RMK AO2 SLP141 T01560133 50005

More Conditions Fewer Conditions

10-Day Weather Forecast

Almanac

Astronomy

Oct. 24, 2014 Rise Set
Actual Time 7:22 AM CDT 6:06 PM CDT
Civil Twilight 6:54 AM CDT 6:34 PM CDT
Nautical Twilight 6:22 AM CDT 7:06 PM CDT
Astronomical Twilight 5:50 AM CDT 7:38 PM CDT
Moon 8:02 AM CDT (10/24) 6:45 PM CDT (10/24)
Length of Visible Light 11h 39m
Length of Day
10h 43m
Tomorrow will be 2m 34s shorter.
New Moon, 2% of the Moon is Illuminated
Today
New Moon
Oct 30
First Quarter
Nov 6
Full
Nov 14
Last Quarter
Nov 22
New

Today's Extremes

State Highs State Lows

Community

WunderPhotos

Upload Photos

1,764,771 photos uploaded!

Nearby

Snow Depth

Station Depth Elevation
No new snow has been reported.

Earthquake Activity

City Distance Mag. Time & Date
No recent earthquake activity has been reported nearby.
Minimum magnitude displayed is 2.5.

Coastal Water Temperatures

Place Temperature
No Stations Reporting

Nearby Weather Stations